createdAt,value
2024-04-22T00:00:49.579Z,53.30
2024-04-22T00:05:57.732Z,53.50
2024-04-22T00:11:04.388Z,53.20
2024-04-22T00:16:07.748Z,53.60
2024-04-22T00:21:09.753Z,53.20
2024-04-22T00:26:12.006Z,53.60
2024-04-22T00:31:14.197Z,53.50
2024-04-22T00:36:16.606Z,53.50
2024-04-22T00:41:18.689Z,53.40
2024-04-22T00:46:21.260Z,53.40
2024-04-22T00:51:24.266Z,53.20
2024-04-22T00:56:30.281Z,53.50
2024-04-22T01:01:33.856Z,53.30
2024-04-22T01:06:36.929Z,53.20
2024-04-22T01:11:39.043Z,53.20
2024-04-22T01:16:41.196Z,53.30
2024-04-22T01:21:43.461Z,53.20
2024-04-22T01:26:47.913Z,53.10
2024-04-22T01:31:49.922Z,52.90
2024-04-22T01:36:52.109Z,53.10
2024-04-22T01:41:54.104Z,53.10
2024-04-22T01:46:56.214Z,53.10
2024-04-22T01:51:58.305Z,53.30
2024-04-22T01:57:00.935Z,53.10
2024-04-22T02:02:03.395Z,53.10
2024-04-22T02:07:05.441Z,53.10
2024-04-22T02:12:07.672Z,53.10
2024-04-22T02:17:09.766Z,52.90
2024-04-22T02:22:11.992Z,53.00
2024-04-22T02:27:13.997Z,52.90
2024-04-22T02:32:21.384Z,53.00
2024-04-22T02:37:23.462Z,52.80
2024-04-22T02:42:25.524Z,53.10
2024-04-22T02:47:27.718Z,52.80
2024-04-22T02:52:29.894Z,52.40
2024-04-22T02:57:32.146Z,52.40
2024-04-22T03:02:34.313Z,52.70
2024-04-22T03:07:36.883Z,52.60
2024-04-22T03:12:39.166Z,52.30
2024-04-22T03:17:41.400Z,52.50
2024-04-22T03:22:43.540Z,52.30
2024-04-22T03:27:45.674Z,52.30
2024-04-22T03:32:47.757Z,52.10
2024-04-22T03:37:49.773Z,51.80
2024-04-22T03:42:51.839Z,52.10
2024-04-22T03:48:12.641Z,52.20
2024-04-22T03:53:14.684Z,51.90
2024-04-22T03:58:16.715Z,51.80
2024-04-22T04:03:18.940Z,51.80
2024-04-22T04:08:21.070Z,51.70
2024-04-22T04:13:23.154Z,51.70
2024-04-22T04:18:25.170Z,51.40
2024-04-22T04:23:27.194Z,51.50
2024-04-22T04:28:29.661Z,51.50
2024-04-22T04:33:31.864Z,51.40
2024-04-22T04:38:34.937Z,51.50
2024-04-22T04:43:37.048Z,51.30
2024-04-22T04:48:39.115Z,51.20
2024-04-22T04:53:41.185Z,51.10
2024-04-22T04:58:43.463Z,51.00
2024-04-22T05:03:45.636Z,51.10
2024-04-22T05:08:47.636Z,50.90
2024-04-22T05:13:49.735Z,50.60
2024-04-22T05:18:51.798Z,51.00
2024-04-22T05:23:56.280Z,50.80
2024-04-22T05:28:58.314Z,50.80
2024-04-22T05:34:19.054Z,50.70
2024-04-22T05:39:21.194Z,50.70
2024-04-22T05:44:23.410Z,50.60
2024-04-22T05:49:27.388Z,50.60
2024-04-22T05:54:29.495Z,50.70
2024-04-22T05:59:31.559Z,50.80
2024-04-22T06:04:33.689Z,50.70
2024-04-22T06:09:35.728Z,50.60
2024-04-22T06:14:38.139Z,50.50
2024-04-22T06:19:40.456Z,50.60
2024-04-22T06:24:42.658Z,50.60
2024-04-22T06:29:44.666Z,50.10
2024-04-22T06:34:47.736Z,50.40
2024-04-22T06:39:49.766Z,50.30
2024-04-22T06:44:52.094Z,50.40
2024-04-22T06:49:54.129Z,50.50
2024-04-22T06:54:56.235Z,50.40
2024-04-22T06:59:58.395Z,50.20
2024-04-22T07:05:00.622Z,50.20
2024-04-22T07:10:03.158Z,50.20
2024-04-22T07:15:06.307Z,50.20
2024-04-22T07:20:08.600Z,50.30
2024-04-22T07:25:10.789Z,50.30
2024-04-22T07:30:13.448Z,50.20
2024-04-22T07:35:16.011Z,50.20
2024-04-22T07:40:20.166Z,50.20
2024-04-22T07:45:25.353Z,50.00
2024-04-22T07:50:29.339Z,50.20
2024-04-22T07:55:31.813Z,50.10
2024-04-22T08:00:34.425Z,50.10
2024-04-22T08:05:36.723Z,50.40
2024-04-22T08:10:39.399Z,50.10
2024-04-22T08:15:41.652Z,50.10
2024-04-22T08:20:43.675Z,50.10
2024-04-22T08:25:45.831Z,50.20
2024-04-22T08:30:47.903Z,50.10
2024-04-22T08:35:50.077Z,50.40
2024-04-22T08:40:52.598Z,50.20
2024-04-22T08:45:54.755Z,49.90
2024-04-22T08:51:00.186Z,50.10
2024-04-22T08:56:02.540Z,49.90
2024-04-22T09:01:08.312Z,50.00
2024-04-22T09:06:11.316Z,49.80
2024-04-22T09:11:47.154Z,50.20
2024-04-22T09:16:45.368Z,50.20
2024-04-22T09:21:47.586Z,50.20
2024-04-22T09:26:50.462Z,49.90
2024-04-22T09:31:57.000Z,50.20
2024-04-22T09:37:01.046Z,50.10
2024-04-22T09:42:04.018Z,50.30
2024-04-22T09:47:07.609Z,50.20
2024-04-22T09:52:11.076Z,50.20
2024-04-22T09:57:13.675Z,50.30
2024-04-22T10:02:15.976Z,50.30
2024-04-22T10:07:19.619Z,50.20
2024-04-22T10:12:29.287Z,50.10
2024-04-22T10:17:31.544Z,50.10
2024-04-22T10:22:36.119Z,50.30
2024-04-22T10:27:39.447Z,50.00
2024-04-22T10:32:41.528Z,50.00
2024-04-22T10:37:43.732Z,49.70
2024-04-22T10:42:47.800Z,49.90
2024-04-22T10:48:05.069Z,49.60
2024-04-22T10:53:14.522Z,49.70
2024-04-22T10:58:16.751Z,49.80
2024-04-22T11:03:19.607Z,49.60
2024-04-22T11:08:21.841Z,49.80
2024-04-22T11:13:25.490Z,49.70
2024-04-22T11:18:27.557Z,49.40
2024-04-22T11:23:29.609Z,49.00
2024-04-22T11:28:32.224Z,49.60
2024-04-22T11:33:34.364Z,49.60
2024-04-22T11:38:36.473Z,49.70
2024-04-22T11:43:38.659Z,49.50
2024-04-22T11:48:40.866Z,49.60
2024-04-22T11:53:43.033Z,49.50
2024-04-22T11:58:45.130Z,49.60
2024-04-22T12:03:47.258Z,49.40
2024-04-22T12:08:49.335Z,49.40
2024-04-22T12:13:51.463Z,49.60
2024-04-22T12:18:54.057Z,49.50
2024-04-22T12:23:56.085Z,49.70
2024-04-22T12:28:58.193Z,49.50
2024-04-22T12:34:06.914Z,49.50
2024-04-22T12:39:14.491Z,49.70
2024-04-22T12:44:16.671Z,49.50
2024-04-22T12:49:37.312Z,49.50
2024-04-22T12:54:40.890Z,49.40
2024-04-22T12:59:42.994Z,49.50
2024-04-22T13:04:45.173Z,49.50
2024-04-22T13:09:47.404Z,48.50
2024-04-22T13:14:49.417Z,48.20
2024-04-22T13:19:51.478Z,48.70
2024-04-22T13:24:53.504Z,48.90
2024-04-22T13:29:57.461Z,48.90
2024-04-22T13:34:59.982Z,49.10
2024-04-22T13:40:02.108Z,49.10
2024-04-22T13:45:05.900Z,49.10
2024-04-22T13:50:08.092Z,49.30
2024-04-22T13:55:10.183Z,49.10
2024-04-22T14:00:14.687Z,49.10
2024-04-22T14:05:17.040Z,46.60
2024-04-22T14:10:19.218Z,45.40
2024-04-22T14:15:24.780Z,46.40
2024-04-22T14:20:32.645Z,46.20
2024-04-22T14:25:35.710Z,46.20
2024-04-22T14:30:37.942Z,45.80
2024-04-22T14:35:40.845Z,45.50
2024-04-22T14:40:43.034Z,45.00
2024-04-22T14:45:45.800Z,44.60
2024-04-22T14:50:52.080Z,44.50
2024-04-22T14:55:54.424Z,44.60
2024-04-22T15:00:56.638Z,44.90
2024-04-22T15:05:58.698Z,45.40
2024-04-22T15:11:04.926Z,45.60
2024-04-22T15:16:09.076Z,45.80
2024-04-22T15:21:11.205Z,46.00
2024-04-22T15:26:13.867Z,46.10
2024-04-22T15:31:16.629Z,46.20
2024-04-22T15:36:18.747Z,46.40
2024-04-22T15:41:20.964Z,47.20
2024-04-22T15:46:23.348Z,46.60
2024-04-22T15:51:25.518Z,46.70
2024-04-22T15:56:27.588Z,47.00
2024-04-22T16:01:29.790Z,46.70
2024-04-22T16:06:31.906Z,47.20
2024-04-22T16:11:34.381Z,47.30
2024-04-22T16:16:36.745Z,47.30
2024-04-22T16:21:38.847Z,47.30
2024-04-22T16:26:40.892Z,47.40
2024-04-22T16:31:43.403Z,47.50
2024-04-22T16:36:46.512Z,47.70
2024-04-22T16:41:48.548Z,47.80
2024-04-22T16:46:50.824Z,47.90
2024-04-22T16:51:53.013Z,48.00
2024-04-22T16:56:56.052Z,48.10
2024-04-22T17:01:58.155Z,48.20
2024-04-22T17:07:00.164Z,48.20
2024-04-22T17:12:02.168Z,48.30
2024-04-22T17:17:06.470Z,48.40
2024-04-22T17:22:09.986Z,48.50
2024-04-22T17:27:11.996Z,48.40
2024-04-22T17:32:14.217Z,48.50
2024-04-22T17:37:19.467Z,48.50
2024-04-22T17:42:22.691Z,48.60
2024-04-22T17:47:24.732Z,48.60
2024-04-22T17:52:26.881Z,48.70
2024-04-22T17:57:28.943Z,48.70
2024-04-22T18:02:31.077Z,48.70
2024-04-22T18:07:33.198Z,48.80
2024-04-22T18:12:35.921Z,48.80
2024-04-22T18:17:38.027Z,48.80
2024-04-22T18:22:44.418Z,48.90
2024-04-22T18:27:52.492Z,48.90
2024-04-22T18:32:54.590Z,48.60
2024-04-22T18:37:57.179Z,49.00
2024-04-22T18:42:59.174Z,49.70
2024-04-22T18:48:01.450Z,49.10
2024-04-22T18:53:03.675Z,49.80
2024-04-22T18:58:07.081Z,49.10
2024-04-22T19:03:09.197Z,49.10
2024-04-22T19:08:11.286Z,49.20
2024-04-22T19:13:44.051Z,49.10
2024-04-22T19:18:50.074Z,49.30
2024-04-22T19:23:55.490Z,49.20
2024-04-22T19:28:57.828Z,49.20
2024-04-22T19:33:59.945Z,48.90
2024-04-22T19:39:01.943Z,49.20
2024-04-22T19:44:04.129Z,49.40
2024-04-22T19:49:06.798Z,49.30
2024-04-22T19:54:09.212Z,49.40
2024-04-22T19:59:11.565Z,49.50
2024-04-22T20:04:13.948Z,49.40
2024-04-22T20:09:15.984Z,49.50
2024-04-22T20:14:18.177Z,49.40
2024-04-22T20:19:23.043Z,49.50
2024-04-22T20:24:25.347Z,49.60
2024-04-22T20:29:27.582Z,49.50
2024-04-22T20:34:29.918Z,49.40
2024-04-22T20:39:32.124Z,49.50
2024-04-22T20:44:34.162Z,49.70
2024-04-22T20:49:36.195Z,49.50
2024-04-22T20:54:38.282Z,49.60
2024-04-22T20:59:40.312Z,49.60
2024-04-22T21:04:45.978Z,49.60
2024-04-22T21:09:48.064Z,49.60
2024-04-22T21:14:50.211Z,49.60
2024-04-22T21:19:53.503Z,50.20
2024-04-22T21:24:55.654Z,49.70
2024-04-22T21:29:58.058Z,49.60
2024-04-22T21:35:00.161Z,49.50
2024-04-22T21:40:02.336Z,49.70
2024-04-22T21:45:05.289Z,49.70
2024-04-22T21:50:07.417Z,49.70
2024-04-22T21:55:09.626Z,49.60
2024-04-22T22:00:49.322Z,49.70
2024-04-22T22:06:28.811Z,49.80
2024-04-22T22:11:31.092Z,49.70
2024-04-22T22:16:33.179Z,49.80
2024-04-22T22:21:36.475Z,49.70
2024-04-22T22:26:39.993Z,49.80
2024-04-22T22:31:42.302Z,49.70
2024-04-22T22:36:44.317Z,49.80
2024-04-22T22:41:46.332Z,49.80
2024-04-22T22:46:48.473Z,49.80
2024-04-22T22:51:50.611Z,49.80
2024-04-22T22:56:59.851Z,49.80
2024-04-22T23:02:02.001Z,49.80
2024-04-22T23:07:04.670Z,49.80
2024-04-22T23:12:06.811Z,49.80
2024-04-22T23:17:09.405Z,49.70
2024-04-22T23:22:11.564Z,49.70
2024-04-22T23:27:14.539Z,49.70
2024-04-22T23:32:17.573Z,49.70
2024-04-22T23:37:19.880Z,49.60
2024-04-22T23:42:21.891Z,49.70
2024-04-22T23:47:23.954Z,49.70
2024-04-22T23:52:25.973Z,49.70
2024-04-22T23:57:28.007Z,49.70
